Camp Verde, Texas
Current Conditions -  °F | °C
As of 5:35 AM on Friday 31 Oct 2014 (Local Time) from KERV Reporting Station
Overcast Overcast  
Wind Chill: 64°   Ceiling: 3200
Heat Index: 64°   Visibility: 10mi
Dew Point: 61°   Wind: 6mph
Humidity: 91%   Direction: 40°NE
Pressure: 30.2"   Gusts: NA
Location:  29.9075°N, 98.9982°W
Report Text: KERV 311035Z AUTO 04005KT 10SM BKN032 OVC038 18/16 A3020 RMK AO2 LTG DSNT S AND SW T01760162
Loading
Personal Weather Stations






























Interactive Weather Map New forecast layout! Learn more

10-Day Weather Forecast

Advertisements
Track Severe Weather on mobile